Time;durP1;ratioP1;P1;durP2;ratioP2;P2;SDS_P1;SDS_P2;PMS_P1;PMS_P2;Temp;Humidity;BMP_temperature;BMP_pressure;BME280_temperature;BME280_humidity;BME280_pressure;Samples;Min_cycle;Max_cycle;Signal;HPM_P1;HPM_P2
2022/06/22 00:02:17;;;;;;;10.25;4.45;;;;;;;;;;10463623;28;20045;-81
2022/06/22 00:07:22;;;;;;;7.85;4.82;;;;;;;;;;10465211;28;20060;-80
2022/06/22 00:12:27;;;;;;;10.48;5.53;;;;;;;;;;10508352;28;20048;-79
2022/06/22 00:17:32;;;;;;;12.00;6.05;;;;;;;;;;10488902;28;20105;-80
2022/06/22 00:22:45;;;;;;;8.27;5.22;;;;;;;;;;10471479;28;20071;-79
2022/06/22 00:27:48;;;;;;;;;;;;;;;;;;10492974;28;20054;-79
2022/06/22 00:32:59;;;;;;;5.43;2.97;;;;;;;;;;10494413;28;19975;-79
2022/06/22 00:38:02;;;;;;;7.75;4.53;;;;;;;;;;10502232;28;20100;-79
2022/06/22 00:43:05;;;;;;;12.18;4.93;;;;;;;;;;10480245;28;20052;-80
2022/06/22 00:48:14;;;;;;;9.85;4.63;;;;;;;;;;10457776;28;20094;-81
2022/06/22 00:53:19;;;;;;;9.23;4.72;;;;;;;;;;10483912;28;20052;-80
2022/06/22 00:58:26;;;;;;;11.50;4.82;;;;;;;;;;10475893;28;20048;-80
2022/06/22 01:03:35;;;;;;;7.88;4.72;;;;;;;;;;10476605;28;20049;-80
2022/06/22 01:08:43;;;;;;;7.55;4.88;;;;;;;;;;10457940;28;20472;-80
2022/06/22 01:13:48;;;;;;;8.23;4.97;;;;;;;;;;10478607;28;20049;-81
2022/06/22 01:19:00;;;;;;;6.30;3.78;;;;;;;;;;10455434;28;20036;-79
2022/06/22 01:24:19;;;;;;;7.10;4.38;;;;;;;;;;10458287;28;20138;-79
2022/06/22 01:29:25;;;;;;;9.70;4.82;;;;;;;;;;10456581;28;20041;-79
2022/06/22 01:34:33;;;;;;;8.98;5.18;;;;;;;;;;10453437;28;20489;-81
2022/06/22 01:39:36;;;;;;;6.85;4.22;;;;;;;;;;10456404;28;20041;-80
2022/06/22 01:44:42;;;;;;;3.45;2.38;;;;;;;;;;10457133;28;20114;-81
2022/06/22 01:49:48;;;;;;;7.55;4.05;;;;;;;;;;10473176;28;20730;-78
2022/06/22 01:54:56;;;;;;;5.70;2.95;;;;;;;;;;10472888;28;20492;-78
2022/06/22 02:00:02;;;;;;;9.15;5.22;;;;;;;;;;10453143;28;20066;-79
2022/06/22 02:05:12;;;;;;;5.30;3.35;;;;;;;;;;10459675;28;20518;-80
2022/06/22 02:10:23;;;;;;;8.23;4.43;;;;;;;;;;10459934;28;20097;-80
2022/06/22 02:15:29;;;;;;;10.82;4.07;;;;;;;;;;10468678;28;20036;-79
2022/06/22 02:20:34;;;;;;;6.07;3.38;;;;;;;;;;10494745;28;20044;-80
2022/06/22 02:25:39;;;;;;;8.35;4.32;;;;;;;;;;10466197;28;20110;-80
2022/06/22 02:30:44;;;;;;;4.95;2.50;;;;;;;;;;10490811;28;20100;-80
2022/06/22 02:35:47;;;;;;;6.47;3.90;;;;;;;;;;10485332;28;20037;-79
2022/06/22 02:46:17;;;;;;;6.93;3.08;;;;;;;;;;10494195;28;20052;-81
2022/06/22 02:51:23;;;;;;;7.22;3.72;;;;;;;;;;10472056;28;20048;-81
2022/06/22 02:56:28;;;;;;;9.27;3.22;;;;;;;;;;10477169;28;20090;-78
2022/06/22 03:01:34;;;;;;;8.73;3.38;;;;;;;;;;10490169;28;20032;-80
2022/06/22 03:06:41;;;;;;;3.80;2.15;;;;;;;;;;10473969;28;20084;-80
2022/06/22 03:11:47;;;;;;;5.70;3.42;;;;;;;;;;10483520;28;20144;-80
2022/06/22 03:16:54;;;;;;;7.47;3.72;;;;;;;;;;10461318;28;20060;-80
2022/06/22 03:21:57;;;;;;;8.18;3.33;;;;;;;;;;10487118;28;20120;-79
2022/06/22 03:27:02;;;;;;;6.40;3.07;;;;;;;;;;10480054;28;20088;-79
2022/06/22 03:32:09;;;;;;;7.90;3.38;;;;;;;;;;10474231;28;20055;-79
2022/06/22 03:37:14;;;;;;;9.52;1.95;;;;;;;;;;10474313;28;20036;-80
2022/06/22 03:42:22;;;;;;;9.23;3.58;;;;;;;;;;10484261;28;20575;-80
2022/06/22 03:47:31;;;;;;;7.57;2.97;;;;;;;;;;10476296;28;20043;-79
2022/06/22 03:52:38;;;;;;;8.32;3.30;;;;;;;;;;10474854;28;20040;-78
2022/06/22 03:57:43;;;;;;;3.97;2.13;;;;;;;;;;10457558;28;20053;-80
2022/06/22 04:02:48;;;;;;;6.82;2.80;;;;;;;;;;10467788;28;20045;-79
2022/06/22 04:07:51;;;;;;;9.60;3.22;;;;;;;;;;10465457;28;20055;-80
2022/06/22 04:12:55;;;;;;;7.03;3.03;;;;;;;;;;10474308;28;20037;-79
2022/06/22 04:18:01;;;;;;;7.00;2.95;;;;;;;;;;10482773;28;20040;-79
2022/06/22 04:23:05;;;;;;;8.70;3.22;;;;;;;;;;10455796;28;20045;-80
2022/06/22 04:28:10;;;;;;;10.18;3.47;;;;;;;;;;10476945;28;20132;-80
2022/06/22 04:33:18;;;;;;;6.80;3.30;;;;;;;;;;10458553;28;20044;-79
2022/06/22 04:38:24;;;;;;;9.95;3.50;;;;;;;;;;10481704;28;20063;-80
2022/06/22 04:43:26;;;;;;;10.85;3.28;;;;;;;;;;10458857;28;20044;-81
2022/06/22 04:48:32;;;;;;;7.95;3.63;;;;;;;;;;10461217;28;20071;-80
2022/06/22 04:53:37;;;;;;;6.88;3.35;;;;;;;;;;10457670;28;20733;-80
2022/06/22 04:58:42;;;;;;;8.43;3.28;;;;;;;;;;10460638;28;20681;-80
2022/06/22 05:03:46;;;;;;;11.32;3.72;;;;;;;;;;10476959;28;20037;-80
2022/06/22 05:08:52;;;;;;;8.93;3.40;;;;;;;;;;10477772;28;20132;-81
2022/06/22 05:13:56;;;;;;;8.80;3.20;;;;;;;;;;10455997;28;20033;-80
2022/06/22 05:19:01;;;;;;;8.35;3.35;;;;;;;;;;10461345;28;20079;-78
2022/06/22 05:24:07;;;;;;;8.50;3.58;;;;;;;;;;10454807;28;20119;-80
2022/06/22 05:29:11;;;;;;;8.75;3.25;;;;;;;;;;10454328;28;20039;-81
2022/06/22 05:34:18;;;;;;;8.10;2.70;;;;;;;;;;10457146;28;20041;-80
2022/06/22 05:39:20;;;;;;;7.78;3.30;;;;;;;;;;10474321;28;20447;-80
2022/06/22 05:44:23;;;;;;;11.88;3.33;;;;;;;;;;10477238;28;20045;-80
2022/06/22 05:49:31;;;;;;;9.85;3.03;;;;;;;;;;10457162;28;20045;-80
2022/06/22 05:54:40;;;;;;;4.05;2.03;;;;;;;;;;10478431;28;20041;-80
2022/06/22 05:59:46;;;;;;;8.77;2.90;;;;;;;;;;10450726;28;20055;-81
2022/06/22 06:04:53;;;;;;;12.15;3.05;;;;;;;;;;10455582;28;20794;-81
2022/06/22 06:09:56;;;;;;;6.55;2.65;;;;;;;;;;10472569;28;20033;-81
2022/06/22 06:15:04;;;;;;;6.88;2.75;;;;;;;;;;10475446;28;20045;-79
2022/06/22 06:20:15;;;;;;;10.60;3.03;;;;;;;;;;10456100;28;20041;-81
2022/06/22 06:30:43;;;;;;;11.25;3.10;;;;;;;;;;10456525;28;20043;-80
2022/06/22 06:35:49;;;;;;;8.88;2.70;;;;;;;;;;10470670;28;20135;-80
2022/06/22 06:40:54;;;;;;;8.40;3.33;;;;;;;;;;10470259;28;20040;-79
2022/06/22 06:45:58;;;;;;;10.00;3.38;;;;;;;;;;10455756;28;20497;-81
2022/06/22 06:51:04;;;;;;;6.55;3.15;;;;;;;;;;10455825;28;20045;-80
2022/06/22 06:56:12;;;;;;;8.27;3.22;;;;;;;;;;10475578;28;20487;-80
2022/06/22 07:01:18;;;;;;;11.55;3.20;;;;;;;;;;10486720;28;20430;-80
2022/06/22 07:06:22;;;;;;;10.90;3.28;;;;;;;;;;10465535;28;20424;-81
2022/06/22 07:11:33;;;;;;;12.55;3.90;;;;;;;;;;10465256;28;20036;-80
2022/06/22 07:16:36;;;;;;;13.30;3.78;;;;;;;;;;10464245;28;20041;-80
2022/06/22 07:21:39;;;;;;;;;;;;;;;;;;10487382;28;20054;-81
2022/06/22 07:26:47;;;;;;;15.63;4.30;;;;;;;;;;10479055;28;19924;-79
2022/06/22 07:31:55;;;;;;;13.60;3.28;;;;;;;;;;10468040;28;20673;-79
2022/06/22 07:37:01;;;;;;;11.15;3.33;;;;;;;;;;10468209;28;20163;-81
2022/06/22 07:42:05;;;;;;;12.77;4.00;;;;;;;;;;10478676;28;20082;-79
2022/06/22 07:47:12;;;;;;;9.80;3.78;;;;;;;;;;10478453;28;20140;-79
2022/06/22 07:52:22;;;;;;;10.77;2.92;;;;;;;;;;10464809;28;20048;-78
2022/06/22 07:57:32;;;;;;;8.10;3.75;;;;;;;;;;10481268;28;20492;-82
2022/06/22 08:02:39;;;;;;;10.70;3.17;;;;;;;;;;10476975;28;20037;-81
2022/06/22 08:07:45;;;;;;;10.02;3.10;;;;;;;;;;10464928;28;20041;-82
2022/06/22 08:12:51;;;;;;;8.95;2.75;;;;;;;;;;10451064;28;20064;-80
2022/06/22 08:17:55;;;;;;;13.35;4.13;;;;;;;;;;10467048;28;20115;-81
2022/06/22 08:22:59;;;;;;;13.95;3.50;;;;;;;;;;10455293;28;20071;-79
2022/06/22 08:28:23;;;;;;;8.73;3.10;;;;;;;;;;10461906;28;20041;-81
2022/06/22 08:33:28;;;;;;;14.98;4.50;;;;;;;;;;10468511;28;20049;-81
2022/06/22 08:38:34;;;;;;;15.05;3.67;;;;;;;;;;10470143;28;20065;-79
2022/06/22 08:43:40;;;;;;;8.82;3.25;;;;;;;;;;10455339;28;20106;-80
2022/06/22 08:49:02;;;;;;;11.77;3.83;;;;;;;;;;10459172;28;20626;-80
2022/06/22 08:54:29;;;;;;;16.23;3.67;;;;;;;;;;10452519;28;20071;-79
2022/06/22 08:59:56;;;;;;;7.65;3.50;;;;;;;;;;10471575;28;20032;-80
2022/06/22 09:05:05;;;;;;;14.38;3.80;;;;;;;;;;10459203;28;20040;-79
2022/06/22 09:10:21;;;;;;;11.23;3.30;;;;;;;;;;10453798;28;20296;-81
2022/06/22 09:15:31;;;;;;;15.30;3.95;;;;;;;;;;10463196;28;20048;-79
2022/06/22 09:20:38;;;;;;;10.45;4.03;;;;;;;;;;10473499;28;20043;-79
2022/06/22 09:25:47;;;;;;;11.50;3.83;;;;;;;;;;10446890;28;20041;-80
2022/06/22 09:31:00;;;;;;;13.13;4.40;;;;;;;;;;10462318;28;20037;-80
2022/06/22 09:36:14;;;;;;;10.13;4.28;;;;;;;;;;10455103;28;20086;-82
2022/06/22 09:41:19;;;;;;;15.32;4.25;;;;;;;;;;10454824;28;20135;-78
2022/06/22 09:46:41;;;;;;;14.00;5.13;;;;;;;;;;10471087;28;20056;-80
2022/06/22 09:51:59;;;;;;;13.10;5.37;;;;;;;;;;10471490;28;20036;-81
2022/06/22 09:57:08;;;;;;;8.65;4.10;;;;;;;;;;10471683;28;20037;-79
2022/06/22 10:02:23;;;;;;;14.68;3.97;;;;;;;;;;10454369;28;20037;-79
2022/06/22 10:07:36;;;;;;;14.00;4.70;;;;;;;;;;10476306;28;20128;-80
2022/06/22 10:12:53;;;;;;;12.02;4.45;;;;;;;;;;10472681;28;20029;-81
2022/06/22 10:18:04;;;;;;;11.52;4.78;;;;;;;;;;10452324;28;20040;-82
2022/06/22 10:23:14;;;;;;;11.50;4.82;;;;;;;;;;10450642;28;20028;-80
2022/06/22 10:28:41;;;;;;;12.90;4.40;;;;;;;;;;10453406;28;20381;-79
2022/06/22 10:34:00;;;;;;;8.82;4.20;;;;;;;;;;10450683;28;20534;-81
2022/06/22 10:39:08;;;;;;;16.25;5.72;;;;;;;;;;10481309;28;20067;-81
2022/06/22 10:50:07;;;;;;;12.43;5.63;;;;;;;;;;10480429;28;20032;-81
2022/06/22 10:55:35;;;;;;;11.63;5.53;;;;;;;;;;10475290;28;20068;-81
2022/06/22 11:00:43;;;;;;;13.07;5.63;;;;;;;;;;10461508;28;20036;-78
2022/06/22 11:05:56;;;;;;;14.95;5.28;;;;;;;;;;10461877;28;20037;-79
2022/06/22 11:10:59;;;;;;;;;;;;;;;;;;10463330;28;20044;-79
2022/06/22 11:16:07;;;;;;;13.13;5.30;;;;;;;;;;10479043;28;20032;-81
2022/06/22 11:21:16;;;;;;;12.38;5.70;;;;;;;;;;10456861;28;20032;-80
2022/06/22 11:32:04;;;;;;;15.65;5.90;;;;;;;;;;10394092;28;20063;-79
2022/06/22 11:37:12;;;;;;;10.73;5.63;;;;;;;;;;10469476;28;20048;-80
2022/06/22 11:42:42;;;;;;;16.23;6.28;;;;;;;;;;10462305;28;20341;-81
2022/06/22 11:48:02;;;;;;;10.90;6.03;;;;;;;;;;10463824;28;20044;-80
2022/06/22 11:53:16;;;;;;;12.27;6.50;;;;;;;;;;10452161;28;20061;-81
2022/06/22 11:58:37;;;;;;;18.20;6.00;;;;;;;;;;10479270;28;20066;-81
2022/06/22 12:03:57;;;;;;;16.00;6.32;;;;;;;;;;10455241;28;20061;-80
2022/06/22 12:09:07;;;;;;;12.40;6.15;;;;;;;;;;10460366;28;20068;-81
2022/06/22 12:19:55;;;;;;;16.27;6.32;;;;;;;;;;10476968;28;20274;-81
2022/06/22 12:25:10;;;;;;;13.90;5.00;;;;;;;;;;10466082;28;20049;-81
2022/06/22 12:30:20;;;;;;;15.77;5.57;;;;;;;;;;10479935;28;20123;-79
2022/06/22 12:35:31;;;;;;;17.05;5.75;;;;;;;;;;10463324;28;20049;-79
2022/06/22 12:40:40;;;;;;;10.57;5.38;;;;;;;;;;10479490;28;20032;-81
2022/06/22 12:45:50;;;;;;;17.70;5.03;;;;;;;;;;10479424;28;20041;-81
2022/06/22 12:50:57;;;;;;;13.45;5.32;;;;;;;;;;10477738;28;20033;-82
2022/06/22 12:56:03;;;;;;;14.60;4.53;;;;;;;;;;10462455;28;20090;-80
2022/06/22 13:01:06;;;;;;;14.98;4.70;;;;;;;;;;10460911;28;20086;-80
2022/06/22 13:06:09;;;;;;;13.32;4.10;;;;;;;;;;10476973;28;20640;-80
2022/06/22 13:11:17;;;;;;;12.50;3.30;;;;;;;;;;10487011;28;20033;-80
2022/06/22 13:16:23;;;;;;;14.73;3.20;;;;;;;;;;10476879;28;20099;-81
2022/06/22 13:21:30;;;;;;;13.75;3.28;;;;;;;;;;10457259;28;20421;-81
2022/06/22 13:26:42;;;;;;;14.60;3.03;;;;;;;;;;10477413;28;20070;-81
2022/06/22 13:31:46;;;;;;;11.50;3.13;;;;;;;;;;10473688;28;20036;-81
2022/06/22 13:36:52;;;;;;;20.95;5.97;;;;;;;;;;10458492;28;20064;-80
2022/06/22 13:42:03;;;;;;;11.02;2.33;;;;;;;;;;10482789;28;20033;-80
2022/06/22 13:47:16;;;;;;;13.50;2.70;;;;;;;;;;10486124;28;20061;-80
2022/06/22 13:52:31;;;;;;;13.18;2.72;;;;;;;;;;10487895;28;20033;-80
2022/06/22 13:57:40;;;;;;;10.75;2.30;;;;;;;;;;10470284;28;20051;-81
2022/06/22 14:02:52;;;;;;;11.75;2.90;;;;;;;;;;10472780;28;20401;-80
2022/06/22 14:07:59;;;;;;;17.27;3.03;;;;;;;;;;10485661;28;20043;-81
2022/06/22 14:13:09;;;;;;;12.07;2.97;;;;;;;;;;10479192;28;20042;-81
2022/06/22 14:18:16;;;;;;;14.60;3.45;;;;;;;;;;10483873;28;20036;-80
2022/06/22 14:23:20;;;;;;;12.65;3.08;;;;;;;;;;10459002;28;20036;-81
2022/06/22 14:28:27;;;;;;;11.52;3.30;;;;;;;;;;10477152;28;20037;-81
2022/06/22 14:33:42;;;;;;;10.70;3.85;;;;;;;;;;10450579;28;20086;-80
2022/06/22 14:38:50;;;;;;;13.90;3.97;;;;;;;;;;10448018;28;20042;-80
2022/06/22 14:43:59;;;;;;;13.02;4.75;;;;;;;;;;10465498;28;20494;-80
2022/06/22 14:49:06;;;;;;;11.68;4.10;;;;;;;;;;10463758;28;20039;-82
2022/06/22 14:54:15;;;;;;;11.23;4.32;;;;;;;;;;10455039;28;20040;-81
2022/06/22 14:59:30;;;;;;;14.70;4.32;;;;;;;;;;10477323;28;20041;-81
2022/06/22 15:04:36;;;;;;;12.68;4.75;;;;;;;;;;10480104;28;20029;-81
2022/06/22 15:09:43;;;;;;;12.70;4.78;;;;;;;;;;10477660;28;20040;-81
2022/06/22 15:14:48;;;;;;;18.35;5.13;;;;;;;;;;10477329;28;21171;-81
2022/06/22 15:19:55;;;;;;;14.70;5.03;;;;;;;;;;10488910;28;20036;-80
2022/06/22 15:25:06;;;;;;;13.75;5.80;;;;;;;;;;10488032;28;20032;-80
2022/06/22 15:30:19;;;;;;;14.57;6.18;;;;;;;;;;10500761;28;20096;-79
2022/06/22 15:35:23;;;;;;;19.70;8.13;;;;;;;;;;10487203;28;20481;-80
2022/06/22 15:40:32;;;;;;;15.18;6.22;;;;;;;;;;10481090;28;20112;-80
2022/06/22 15:45:41;;;;;;;12.88;5.72;;;;;;;;;;10494723;28;20348;-80
2022/06/22 15:51:05;;;;;;;20.10;8.13;;;;;;;;;;10462077;28;20124;-82
2022/06/22 15:56:17;;;;;;;14.57;7.53;;;;;;;;;;10480767;28;20188;-81
2022/06/22 16:01:23;;;;;;;13.95;6.85;;;;;;;;;;10463011;28;20541;-82
2022/06/22 16:06:28;;;;;;;12.88;6.53;;;;;;;;;;10454139;28;20045;-78
2022/06/22 16:16:58;;;;;;;19.23;10.73;;;;;;;;;;10472446;28;20044;-79
2022/06/22 16:22:03;;;;;;;15.43;7.13;;;;;;;;;;10474591;28;20603;-77
2022/06/22 16:27:12;;;;;;;17.00;7.95;;;;;;;;;;10455931;28;20049;-78
2022/06/22 16:32:24;;;;;;;13.55;7.82;;;;;;;;;;10464254;28;20036;-79
2022/06/22 16:37:30;;;;;;;13.27;7.07;;;;;;;;;;10450917;28;20091;-77
2022/06/22 16:42:44;;;;;;;24.48;8.75;;;;;;;;;;10448690;28;20043;-78
2022/06/22 16:48:11;;;;;;;18.65;7.47;;;;;;;;;;10471637;28;20102;-78
2022/06/22 16:53:20;;;;;;;20.80;8.50;;;;;;;;;;10454944;28;20086;-77
2022/06/22 16:58:27;;;;;;;20.10;9.32;;;;;;;;;;10476928;28;20044;-78
2022/06/22 17:03:40;;;;;;;14.57;7.85;;;;;;;;;;10460967;28;20041;-78
2022/06/22 17:08:57;;;;;;;18.27;9.05;;;;;;;;;;10484878;28;20068;-78
2022/06/22 17:13:59;;;;;;;14.63;8.10;;;;;;;;;;10455567;28;20041;-79
2022/06/22 17:19:07;;;;;;;13.15;6.10;;;;;;;;;;10477406;28;20426;-79
2022/06/22 17:24:22;;;;;;;18.08;7.25;;;;;;;;;;10456959;28;20070;-79
2022/06/22 17:29:28;;;;;;;14.18;6.43;;;;;;;;;;10455240;28;20115;-77
2022/06/22 17:34:35;;;;;;;12.63;5.95;;;;;;;;;;10475654;28;20189;-78
2022/06/22 17:39:50;;;;;;;15.77;5.60;;;;;;;;;;10451276;28;20032;-78
2022/06/22 17:44:58;;;;;;;11.63;5.00;;;;;;;;;;10470450;28;20052;-79
2022/06/22 17:50:07;;;;;;;16.30;6.60;;;;;;;;;;10457782;28;20504;-79
2022/06/22 17:55:18;;;;;;;14.23;4.60;;;;;;;;;;10458020;28;20045;-78
2022/06/22 18:00:22;;;;;;;16.45;4.75;;;;;;;;;;10463714;28;20080;-79
2022/06/22 18:05:45;;;;;;;19.15;6.55;;;;;;;;;;10485211;28;20068;-79
2022/06/22 18:10:58;;;;;;;12.93;6.05;;;;;;;;;;10450502;28;20037;-80
2022/06/22 18:16:01;;;;;;;17.38;7.50;;;;;;;;;;10466854;28;20029;-79
2022/06/22 18:21:07;;;;;;;15.38;6.22;;;;;;;;;;10482578;28;20033;-81
2022/06/22 18:26:13;;;;;;;15.55;6.97;;;;;;;;;;10461821;28;20040;-75
2022/06/22 18:31:18;;;;;;;12.82;5.75;;;;;;;;;;10453784;28;20040;-76
2022/06/22 18:36:26;;;;;;;17.73;7.25;;;;;;;;;;10470113;28;20032;-76
2022/06/22 18:47:09;;;;;;;13.43;5.88;;;;;;;;;;10389011;28;20048;-74
2022/06/22 18:52:15;;;;;;;14.93;6.22;;;;;;;;;;10466490;28;20049;-74
2022/06/22 18:57:22;;;;;;;13.07;6.00;;;;;;;;;;10465188;28;20040;-78
2022/06/22 19:02:28;;;;;;;13.52;6.97;;;;;;;;;;10471055;28;20028;-79
2022/06/22 19:07:32;;;;;;;11.13;5.93;;;;;;;;;;10492982;28;20041;-78
2022/06/22 19:12:43;;;;;;;16.00;6.20;;;;;;;;;;10490198;28;20110;-79
2022/06/22 19:17:54;;;;;;;12.73;5.53;;;;;;;;;;10489974;28;20477;-79
2022/06/22 19:23:10;;;;;;;14.15;6.65;;;;;;;;;;10492411;28;20488;-79
2022/06/22 19:28:20;;;;;;;10.20;5.93;;;;;;;;;;10481890;28;20097;-77
2022/06/22 19:33:32;;;;;;;13.20;6.15;;;;;;;;;;10468911;28;20040;-78
2022/06/22 19:38:45;;;;;;;17.02;7.05;;;;;;;;;;10467245;28;20049;-76
2022/06/22 19:43:57;;;;;;;13.90;4.90;;;;;;;;;;10467007;28;20040;-78
2022/06/22 19:49:04;;;;;;;10.33;5.47;;;;;;;;;;10465503;28;20050;-79
2022/06/22 19:54:13;;;;;;;14.65;6.25;;;;;;;;;;10454529;28;20036;-77
2022/06/22 19:59:19;;;;;;;13.60;5.72;;;;;;;;;;10468784;28;20456;-77
2022/06/22 20:04:26;;;;;;;11.02;5.13;;;;;;;;;;10453560;28;20060;-77
2022/06/22 20:09:29;;;;;;;14.40;4.70;;;;;;;;;;10478120;28;20120;-78
2022/06/22 20:14:37;;;;;;;12.85;5.00;;;;;;;;;;10470264;28;20041;-76
2022/06/22 20:19:40;;;;;;;8.50;4.75;;;;;;;;;;10483589;28;20029;-77
2022/06/22 20:24:45;;;;;;;;;;;;;;;;;;10485923;28;20028;-78
2022/06/22 20:29:52;;;;;;;13.32;5.03;;;;;;;;;;10496438;28;19927;-79
2022/06/22 20:35:14;;;;;;;12.48;5.10;;;;;;;;;;10486459;28;20041;-78
2022/06/22 20:40:19;;;;;;;14.63;7.57;;;;;;;;;;10466931;28;20090;-80
2022/06/22 20:45:35;;;;;;;16.50;7.40;;;;;;;;;;10481545;28;20041;-77
2022/06/22 20:50:40;;;;;;;14.20;7.05;;;;;;;;;;10443959;28;20648;-78
2022/06/22 20:55:45;;;;;;;23.08;9.38;;;;;;;;;;10442165;28;20394;-76
2022/06/22 21:00:50;;;;;;;20.08;8.50;;;;;;;;;;10449667;28;20139;-77
2022/06/22 21:05:59;;;;;;;16.45;8.93;;;;;;;;;;10470716;28;20082;-77
2022/06/22 21:11:24;;;;;;;16.35;8.48;;;;;;;;;;10465103;28;20036;-77
2022/06/22 21:16:39;;;;;;;15.50;7.80;;;;;;;;;;10467583;28;20421;-77
2022/06/22 21:22:01;;;;;;;19.38;8.50;;;;;;;;;;10487482;28;20052;-77
2022/06/22 21:27:10;;;;;;;18.05;8.68;;;;;;;;;;10478006;28;20032;-77
2022/06/22 21:32:24;;;;;;;18.65;8.65;;;;;;;;;;10484213;28;20567;-77
2022/06/22 21:37:31;;;;;;;18.92;9.45;;;;;;;;;;10478803;28;20673;-77
2022/06/22 21:42:39;;;;;;;15.48;8.27;;;;;;;;;;10480641;28;20120;-78
2022/06/22 21:47:51;;;;;;;18.75;8.35;;;;;;;;;;10480191;28;20048;-77
2022/06/22 21:53:05;;;;;;;23.27;8.88;;;;;;;;;;10482195;28;20037;-77
2022/06/22 21:58:23;;;;;;;19.80;7.47;;;;;;;;;;10481866;28;20056;-77
2022/06/22 22:03:33;;;;;;;17.17;8.00;;;;;;;;;;10451838;28;20400;-77
2022/06/22 22:08:55;;;;;;;17.70;8.98;;;;;;;;;;10472169;28;20044;-79
2022/06/22 22:14:01;;;;;;;17.95;9.23;;;;;;;;;;10455162;28;20705;-77
2022/06/22 22:19:07;;;;;;;20.40;8.52;;;;;;;;;;10446317;28;20097;-76
2022/06/22 22:24:13;;;;;;;17.38;7.95;;;;;;;;;;10458034;28;20075;-77
2022/06/22 22:29:18;;;;;;;14.02;6.80;;;;;;;;;;10473091;28;20059;-76
2022/06/22 22:34:25;;;;;;;15.80;7.22;;;;;;;;;;10470876;28;20044;-76
2022/06/22 22:39:30;;;;;;;17.83;6.32;;;;;;;;;;10459315;28;20135;-77
2022/06/22 22:44:35;;;;;;;15.60;7.20;;;;;;;;;;10476607;28;20045;-76
2022/06/22 22:49:41;;;;;;;16.65;7.80;;;;;;;;;;10479370;28;20504;-77
2022/06/22 22:54:47;;;;;;;15.07;6.97;;;;;;;;;;10480013;28;20064;-77
2022/06/22 22:59:52;;;;;;;18.98;7.15;;;;;;;;;;10483085;28;20068;-78
2022/06/22 23:04:58;;;;;;;17.95;6.88;;;;;;;;;;10484126;28;20128;-77
2022/06/22 23:10:02;;;;;;;14.90;7.15;;;;;;;;;;10500017;28;20089;-81
2022/06/22 23:15:05;;;;;;;13.68;6.90;;;;;;;;;;10504139;28;20060;-81
2022/06/22 23:20:13;;;;;;;18.85;7.07;;;;;;;;;;10471272;28;20102;-82
2022/06/22 23:25:18;;;;;;;15.23;7.22;;;;;;;;;;10473876;28;20028;-82
2022/06/22 23:30:27;;;;;;;18.08;7.63;;;;;;;;;;10491142;28;20116;-83
2022/06/22 23:35:36;;;;;;;17.83;7.95;;;;;;;;;;10471008;28;20159;-81
2022/06/22 23:40:39;;;;;;;16.27;8.07;;;;;;;;;;10462055;28;20064;-81
2022/06/22 23:45:42;;;;;;;16.65;6.85;;;;;;;;;;10463128;28;20091;-81
2022/06/22 23:50:49;;;;;;;17.80;7.25;;;;;;;;;;10461652;28;20128;-81
2022/06/22 23:55:52;;;;;;;15.48;7.13;;;;;;;;;;10461470;28;20059;-81
